METAR Reports From Nearby Airports

 

KLUD - Decatur, Texas, USA
Distance from Wildwood: OZO 5mi, 8km
Updated: Dec 04, 2021 1:15am
Helder
Helder
 Wind van Z
Wind: Z 8 mph , 13 km/h
Temperatuur: 64°F , 18°C
Dauwpunt: 61°F , 16°C
Vochtigheid: 88%
Barometer: 29.96 inHg , 1014.6 hPa
Clouds: Helder
Visibility: 7 miles , 11 km
2021/12/04 07:15 KLUD 040715Z AUTO 17007KT 7SM CLR 18/16 A2996 RMK AO2 T01760164
KXBP - Bridgeport, Texas, USA
Distance from Wildwood: WZW 11mi, 18km
Updated: Dec 04, 2021 1:15am
Helder
Helder
 Wind van calm
Wind: Kalm
Temperatuur: 66°F , 19°C
Dauwpunt: 63°F , 17°C
Vochtigheid: 88%
Barometer: 29.98 inHg , 1015.2 hPa
Clouds: Helder
Visibility: 10 miles , 16 km
2021/12/04 07:15 KXBP 040715Z AUTO 00000KT 10SM CLR 19/17 A2998 RMK AO2 LTG DSNT S T01910171
 
K0F2 - Bowie, Texas, USA
Distance from Wildwood: NNW 24mi, 39km
Updated: Dec 04, 2021 1:35am
Mist, Helder
Mist, Helder
 Wind van ZO
Wind: ZO 5 mph , 7 km/h
Temperatuur: 61°F , 16°C
Dauwpunt: 61°F , 16°C
Vochtigheid: 100%
Barometer: 29.96 inHg , 1014.6 hPa
Overzicht: Mist
Clouds: Helder
Visibility: 2 1/2 miles , 4 km
2021/12/04 07:35 K0F2 040735Z AUTO 14004KT 2 1/2SM BR CLR 16/16 A2996 RMK AO2 T01580155
KDTO - Denton, Texas, USA
Distance from Wildwood: O 27mi, 44km
Updated: Dec 04, 2021 1:17am
Mist, Few clouds
Mist, Few clouds
 Wind van ZZO
Wind: ZZO 7 mph , 11 km/h
Temperatuur: 61°F , 16°C
Dauwpunt: 61°F , 16°C
Vochtigheid: 100%
Barometer: 29.98 inHg , 1015.2 hPa
Overzicht: Mist
Clouds: Few Clouds
Visibility: 4 miles , 6 km
Cloud details: Few Clouds 12000 ft
2021/12/04 07:17 KDTO 040717Z AUTO 15006KT 4SM BR FEW120 16/16 A2998 RMK AO2 T01610156
 
KAFW - Ft Worth/Allianc, Texas, USA
Distance from Wildwood: ZO 29mi, 46km
Updated: Dec 04, 2021 12:53am
Mostly Cloudy
Mostly Cloudy
 Wind van ZZW
Wind: ZZW 9 mph , 15 km/h
Temperatuur: 64°F , 18°C
Dauwpunt: 63°F , 17°C
Vochtigheid: 94%
Barometer: 29.97 inHg , 1014.9 hPa
Clouds: Mostly Cloudy
Visibility: 10 miles , 16 km
Cloud details: Partly Cloudy 2400 ft
Mostly Cloudy 25000 ft
2021/12/04 06:53 KAFW 040653Z 20008KT 10SM SCT024 BKN250 18/17 A2997 RMK AO2 LTG DSNT W SLP141 FRQ LTGIC DSNT SW CB DSNT SW-W MOV E T01830172
KFTW - Fort Worth, Texas, USA
Distance from Wildwood: ZZO 34mi, 55km
Updated: Dec 04, 2021 12:53am
Helder
Helder
 Wind van Z
Wind: Z 9 mph , 15 km/h
Temperatuur: 64°F , 18°C
Dauwpunt: 63°F , 17°C
Vochtigheid: 94%
Barometer: 29.97 inHg , 1014.9 hPa
Clouds: Helder
Visibility: 10 miles , 16 km
2021/12/04 06:53 KFTW 040653Z 18008KT 10SM CLR 18/17 A2997 RMK AO2 LTG DSNT W SLP142 T01780172
 
KNFW - Fort Worth Nas, Texas, USA
Distance from Wildwood: ZZO 36mi, 58km
Updated: Dec 04, 2021 1:24am
Few Clouds
Few Clouds
 Wind van Z
Wind: Z 7 mph , 11 km/h
Barometer: 29.99 inHg , 1015.6 hPa
Clouds: Few Clouds
Visibility: 10 miles , 16 km
Cloud details: Few Clouds 12000 ft
2021/12/04 07:24 KNFW 040724Z 18006KT 10SM FEW120 A2999 RMK AO2 TSE18 CHINO S VISNO S $
KGLE - Gainesville, Texas, USA
Distance from Wildwood: NO 38mi, 61km
Updated: Dec 04, 2021 1:35am
Fog, Zwaar bewolkt
Fog, Zwaar bewolkt
 Wind van calm
Wind: Kalm
Temperatuur: 59°F , 15°C
Dauwpunt: 59°F , 15°C
Vochtigheid: 100%
Barometer: 29.99 inHg , 1015.6 hPa
Overzicht: Fog
Clouds: Zwaar bewolkt
Visibility: 1/4 mile , 0.4 km
Cloud details: Zwaar bewolkt 300 ft
2021/12/04 07:35 KGLE 040735Z AUTO 00000KT 1/4SM FG OVC003 15/15 A2999 RMK AO2 T01500148
 
KMWL - Mineral Wells, Texas, USA
Distance from Wildwood: ZW 41mi, 65km
Updated: Dec 04, 2021 1:34am
Lichte regen, Meestal bewolkt
Lichte regen, Meestal bewolkt
 Wind van ZZO
Wind: ZZO 13 mph , 20 km/h
Temperatuur: 70°F , 21°C
Dauwpunt: 63°F , 17°C
Vochtigheid: 78%
Barometer: 29.97 inHg , 1014.9 hPa
Overzicht: Light Rain
Clouds: Mostly Cloudy
Visibility: 10 miles , 16 km
Cloud details: Mostly Cloudy 11000 ft
2021/12/04 07:34 KMWL 040734Z AUTO 15011KT 10SM -RA BKN110 21/17 A2997 RMK AO2 LTG DSNT SE RAE0656B08 TSE0657 P0001 T02110172
KDFW - Dallas/Ft Worth, Texas, USA
Distance from Wildwood: OZO 45mi, 73km
Updated: Dec 04, 2021 12:53am
Partly Cloudy
Partly Cloudy
 Wind van Z
Wind: Z 7 mph , 11 km/h
Temperatuur: 64°F , 18°C
Dauwpunt: 63°F , 17°C
Vochtigheid: 94%
Barometer: 29.98 inHg , 1015.2 hPa
Clouds: Partly Cloudy
Visibility: 10 miles , 16 km
Cloud details: Few Clouds 1000 ft
Few Clouds 12000 ft
Partly Cloudy 25000 ft
2021/12/04 06:53 KDFW 040653Z 18006KT 10SM FEW010 FEW120 SCT250 18/17 A2998 RMK AO2 SLP144 T01780167